sensor_id;sensor_type;location;lat;lon;timestamp;temperature;humidity
80274;DHT22;69576;51.902;-8.462;2023-11-19T00:00:06;14.90;74.90
80274;DHT22;69576;51.902;-8.462;2023-11-19T00:02:38;14.90;74.50
80274;DHT22;69576;51.902;-8.462;2023-11-19T00:05:04;14.90;74.70
80274;DHT22;69576;51.902;-8.462;2023-11-19T00:07:35;14.80;74.70
80274;DHT22;69576;51.902;-8.462;2023-11-19T00:10:08;14.80;74.40
80274;DHT22;69576;51.902;-8.462;2023-11-19T00:12:35;14.80;74.70
80274;DHT22;69576;51.902;-8.462;2023-11-19T00:15:03;14.90;75.50
80274;DHT22;69576;51.902;-8.462;2023-11-19T00:17:30;14.80;75.20
80274;DHT22;69576;51.902;-8.462;2023-11-19T00:19:58;14.80;75.10
80274;DHT22;69576;51.902;-8.462;2023-11-19T00:22:24;14.80;75.30
80274;DHT22;69576;51.902;-8.462;2023-11-19T00:24:51;14.80;74.90
80274;DHT22;69576;51.902;-8.462;2023-11-19T00:27:17;14.80;75.20
80274;DHT22;69576;51.902;-8.462;2023-11-19T00:29:45;14.80;75.30
80274;DHT22;69576;51.902;-8.462;2023-11-19T00:32:11;14.90;75.50
80274;DHT22;69576;51.902;-8.462;2023-11-19T00:34:37;14.90;75.60
80274;DHT22;69576;51.902;-8.462;2023-11-19T00:37:06;14.90;75.50
80274;DHT22;69576;51.902;-8.462;2023-11-19T00:39:32;14.90;75.60
80274;DHT22;69576;51.902;-8.462;2023-11-19T00:41:58;14.90;75.60
80274;DHT22;69576;51.902;-8.462;2023-11-19T00:44:26;14.90;75.70
80274;DHT22;69576;51.902;-8.462;2023-11-19T00:46:52;14.80;75.60
80274;DHT22;69576;51.902;-8.462;2023-11-19T00:49:20;14.90;75.30
80274;DHT22;69576;51.902;-8.462;2023-11-19T00:51:46;14.80;75.10
80274;DHT22;69576;51.902;-8.462;2023-11-19T00:54:17;14.80;75.30
80274;DHT22;69576;51.902;-8.462;2023-11-19T00:56:45;14.80;75.50
80274;DHT22;69576;51.902;-8.462;2023-11-19T00:59:11;14.80;75.50
80274;DHT22;69576;51.902;-8.462;2023-11-19T01:01:37;14.80;75.30
80274;DHT22;69576;51.902;-8.462;2023-11-19T01:04:02;14.80;75.70
80274;DHT22;69576;51.902;-8.462;2023-11-19T01:06:31;14.80;75.70
80274;DHT22;69576;51.902;-8.462;2023-11-19T01:08:58;14.80;75.50
80274;DHT22;69576;51.902;-8.462;2023-11-19T01:11:26;14.80;75.50
80274;DHT22;69576;51.902;-8.462;2023-11-19T01:13:52;14.80;75.40
80274;DHT22;69576;51.902;-8.462;2023-11-19T01:16:18;14.80;75.80
80274;DHT22;69576;51.902;-8.462;2023-11-19T01:18:47;14.80;75.70
80274;DHT22;69576;51.902;-8.462;2023-11-19T01:21:14;14.80;75.50
80274;DHT22;69576;51.902;-8.462;2023-11-19T01:23:42;14.80;75.50
80274;DHT22;69576;51.902;-8.462;2023-11-19T01:26:14;14.70;75.20
80274;DHT22;69576;51.902;-8.462;2023-11-19T01:28:40;14.70;74.90
80274;DHT22;69576;51.902;-8.462;2023-11-19T01:31:11;14.70;75.30
80274;DHT22;69576;51.902;-8.462;2023-11-19T01:33:36;14.70;75.50
80274;DHT22;69576;51.902;-8.462;2023-11-19T01:36:02;14.70;75.10
80274;DHT22;69576;51.902;-8.462;2023-11-19T01:38:29;14.70;75.40
80274;DHT22;69576;51.902;-8.462;2023-11-19T01:40:59;14.70;75.30
80274;DHT22;69576;51.902;-8.462;2023-11-19T01:43:35;14.70;75.30
80274;DHT22;69576;51.902;-8.462;2023-11-19T01:46:05;14.70;75.50
80274;DHT22;69576;51.902;-8.462;2023-11-19T01:48:34;14.70;75.60
80274;DHT22;69576;51.902;-8.462;2023-11-19T01:51:04;14.70;75.40
80274;DHT22;69576;51.902;-8.462;2023-11-19T01:53:34;14.70;75.50
80274;DHT22;69576;51.902;-8.462;2023-11-19T01:56:00;14.70;75.60
80274;DHT22;69576;51.902;-8.462;2023-11-19T01:58:26;14.70;75.00
80274;DHT22;69576;51.902;-8.462;2023-11-19T02:00:56;14.70;75.30
80274;DHT22;69576;51.902;-8.462;2023-11-19T02:03:25;14.70;75.10
80274;DHT22;69576;51.902;-8.462;2023-11-19T02:05:54;14.70;75.50
80274;DHT22;69576;51.902;-8.462;2023-11-19T02:08:23;14.70;75.70
80274;DHT22;69576;51.902;-8.462;2023-11-19T02:10:49;14.70;75.40
80274;DHT22;69576;51.902;-8.462;2023-11-19T02:13:17;14.70;75.50
80274;DHT22;69576;51.902;-8.462;2023-11-19T02:15:47;14.70;75.50
80274;DHT22;69576;51.902;-8.462;2023-11-19T02:18:19;14.60;75.40
80274;DHT22;69576;51.902;-8.462;2023-11-19T02:20:48;14.60;75.60
80274;DHT22;69576;51.902;-8.462;2023-11-19T02:23:14;14.60;75.50
80274;DHT22;69576;51.902;-8.462;2023-11-19T02:25:40;14.60;75.40
80274;DHT22;69576;51.902;-8.462;2023-11-19T02:28:06;14.60;75.10
80274;DHT22;69576;51.902;-8.462;2023-11-19T02:30:35;14.60;75.40
80274;DHT22;69576;51.902;-8.462;2023-11-19T02:33:03;14.60;75.10
80274;DHT22;69576;51.902;-8.462;2023-11-19T02:35:32;14.60;75.10
80274;DHT22;69576;51.902;-8.462;2023-11-19T02:38:01;14.60;74.90
80274;DHT22;69576;51.902;-8.462;2023-11-19T02:40:29;14.60;75.30
80274;DHT22;69576;51.902;-8.462;2023-11-19T02:42:55;14.50;75.20
80274;DHT22;69576;51.902;-8.462;2023-11-19T02:45:25;14.50;75.60
80274;DHT22;69576;51.902;-8.462;2023-11-19T02:47:53;14.50;75.40
80274;DHT22;69576;51.902;-8.462;2023-11-19T02:50:21;14.50;75.30
80274;DHT22;69576;51.902;-8.462;2023-11-19T02:52:59;14.50;75.10
80274;DHT22;69576;51.902;-8.462;2023-11-19T02:55:29;14.50;75.50
80274;DHT22;69576;51.902;-8.462;2023-11-19T02:58:04;14.60;75.80
80274;DHT22;69576;51.902;-8.462;2023-11-19T03:00:45;14.60;75.60
80274;DHT22;69576;51.902;-8.462;2023-11-19T03:03:20;14.60;75.70
80274;DHT22;69576;51.902;-8.462;2023-11-19T03:05:48;14.60;75.60
80274;DHT22;69576;51.902;-8.462;2023-11-19T03:08:15;14.60;75.70
80274;DHT22;69576;51.902;-8.462;2023-11-19T03:10:45;14.60;75.30
80274;DHT22;69576;51.902;-8.462;2023-11-19T03:13:12;14.50;75.70
80274;DHT22;69576;51.902;-8.462;2023-11-19T03:15:41;14.60;75.60
80274;DHT22;69576;51.902;-8.462;2023-11-19T03:18:09;14.60;75.80
80274;DHT22;69576;51.902;-8.462;2023-11-19T03:20:37;14.50;75.70
80274;DHT22;69576;51.902;-8.462;2023-11-19T03:23:02;14.60;75.70
80274;DHT22;69576;51.902;-8.462;2023-11-19T03:25:33;14.60;75.40
80274;DHT22;69576;51.902;-8.462;2023-11-19T03:28:03;14.60;75.50
80274;DHT22;69576;51.902;-8.462;2023-11-19T03:30:30;14.50;75.30
80274;DHT22;69576;51.902;-8.462;2023-11-19T03:32:56;14.50;75.60
80274;DHT22;69576;51.902;-8.462;2023-11-19T03:35:25;14.50;75.50
80274;DHT22;69576;51.902;-8.462;2023-11-19T03:37:51;14.50;75.40
80274;DHT22;69576;51.902;-8.462;2023-11-19T03:40:21;14.50;75.70
80274;DHT22;69576;51.902;-8.462;2023-11-19T03:42:47;14.50;75.70
80274;DHT22;69576;51.902;-8.462;2023-11-19T03:45:18;14.50;75.80
80274;DHT22;69576;51.902;-8.462;2023-11-19T03:47:48;14.50;75.60
80274;DHT22;69576;51.902;-8.462;2023-11-19T03:50:19;14.50;75.40
80274;DHT22;69576;51.902;-8.462;2023-11-19T03:52:49;14.50;75.10
80274;DHT22;69576;51.902;-8.462;2023-11-19T03:55:15;14.50;75.40
80274;DHT22;69576;51.902;-8.462;2023-11-19T03:57:41;14.50;75.70
80274;DHT22;69576;51.902;-8.462;2023-11-19T04:00:07;14.50;75.30
80274;DHT22;69576;51.902;-8.462;2023-11-19T04:02:37;14.50;75.40
80274;DHT22;69576;51.902;-8.462;2023-11-19T04:05:03;14.50;75.40
80274;DHT22;69576;51.902;-8.462;2023-11-19T04:07:33;14.50;75.30
80274;DHT22;69576;51.902;-8.462;2023-11-19T04:10:01;14.50;75.50
80274;DHT22;69576;51.902;-8.462;2023-11-19T04:12:29;14.50;75.50
80274;DHT22;69576;51.902;-8.462;2023-11-19T04:15:00;14.50;75.60
80274;DHT22;69576;51.902;-8.462;2023-11-19T04:17:28;14.50;75.50
80274;DHT22;69576;51.902;-8.462;2023-11-19T04:19:56;14.50;75.80
80274;DHT22;69576;51.902;-8.462;2023-11-19T04:22:24;14.50;75.70
80274;DHT22;69576;51.902;-8.462;2023-11-19T04:24:52;14.50;75.60
80274;DHT22;69576;51.902;-8.462;2023-11-19T04:27:18;14.50;75.70
80274;DHT22;69576;51.902;-8.462;2023-11-19T04:29:44;14.50;75.70
80274;DHT22;69576;51.902;-8.462;2023-11-19T04:32:11;14.50;75.20
80274;DHT22;69576;51.902;-8.462;2023-11-19T04:34:39;14.50;75.30
80274;DHT22;69576;51.902;-8.462;2023-11-19T04:37:04;14.40;75.30
80274;DHT22;69576;51.902;-8.462;2023-11-19T04:39:33;14.40;75.80
80274;DHT22;69576;51.902;-8.462;2023-11-19T04:41:59;14.40;75.20
80274;DHT22;69576;51.902;-8.462;2023-11-19T04:44:25;14.40;75.00
80274;DHT22;69576;51.902;-8.462;2023-11-19T04:46:55;14.40;75.20
80274;DHT22;69576;51.902;-8.462;2023-11-19T04:49:25;14.40;75.30
80274;DHT22;69576;51.902;-8.462;2023-11-19T04:51:52;14.40;75.60
80274;DHT22;69576;51.902;-8.462;2023-11-19T04:54:19;14.40;75.40
80274;DHT22;69576;51.902;-8.462;2023-11-19T04:56:47;14.40;75.20
80274;DHT22;69576;51.902;-8.462;2023-11-19T04:59:14;14.40;75.20
80274;DHT22;69576;51.902;-8.462;2023-11-19T05:01:40;14.40;75.30
80274;DHT22;69576;51.902;-8.462;2023-11-19T05:04:07;14.40;75.30
80274;DHT22;69576;51.902;-8.462;2023-11-19T05:06:33;14.40;75.40
80274;DHT22;69576;51.902;-8.462;2023-11-19T05:09:00;14.40;75.40
80274;DHT22;69576;51.902;-8.462;2023-11-19T05:11:31;14.40;75.20
80274;DHT22;69576;51.902;-8.462;2023-11-19T05:13:59;14.40;75.70
80274;DHT22;69576;51.902;-8.462;2023-11-19T05:16:27;14.40;75.50
80274;DHT22;69576;51.902;-8.462;2023-11-19T05:18:56;14.40;75.70
80274;DHT22;69576;51.902;-8.462;2023-11-19T05:21:21;14.40;75.60
80274;DHT22;69576;51.902;-8.462;2023-11-19T05:23:50;14.40;75.70
80274;DHT22;69576;51.902;-8.462;2023-11-19T05:26:24;14.40;75.70
80274;DHT22;69576;51.902;-8.462;2023-11-19T05:28:52;14.40;75.70
80274;DHT22;69576;51.902;-8.462;2023-11-19T05:31:18;14.40;75.80
80274;DHT22;69576;51.902;-8.462;2023-11-19T05:33:44;14.40;75.90
80274;DHT22;69576;51.902;-8.462;2023-11-19T05:36:11;14.40;76.00
80274;DHT22;69576;51.902;-8.462;2023-11-19T05:38:38;14.40;75.90
80274;DHT22;69576;51.902;-8.462;2023-11-19T05:41:06;14.40;76.00
80274;DHT22;69576;51.902;-8.462;2023-11-19T05:43:35;14.40;76.00
80274;DHT22;69576;51.902;-8.462;2023-11-19T05:46:01;14.40;75.70
80274;DHT22;69576;51.902;-8.462;2023-11-19T05:48:31;14.40;75.80
80274;DHT22;69576;51.902;-8.462;2023-11-19T05:50:59;14.40;75.60
80274;DHT22;69576;51.902;-8.462;2023-11-19T05:53:25;14.40;75.70
80274;DHT22;69576;51.902;-8.462;2023-11-19T05:55:54;14.40;75.80
80274;DHT22;69576;51.902;-8.462;2023-11-19T05:58:28;14.40;75.70
80274;DHT22;69576;51.902;-8.462;2023-11-19T06:00:55;14.40;75.80
80274;DHT22;69576;51.902;-8.462;2023-11-19T06:03:26;14.40;75.80
80274;DHT22;69576;51.902;-8.462;2023-11-19T06:05:52;14.40;76.00
80274;DHT22;69576;51.902;-8.462;2023-11-19T06:08:20;14.40;75.90
80274;DHT22;69576;51.902;-8.462;2023-11-19T06:10:48;14.40;76.00
80274;DHT22;69576;51.902;-8.462;2023-11-19T06:13:17;14.40;76.10
80274;DHT22;69576;51.902;-8.462;2023-11-19T06:15:45;14.40;76.10
80274;DHT22;69576;51.902;-8.462;2023-11-19T06:18:13;14.50;76.00
80274;DHT22;69576;51.902;-8.462;2023-11-19T06:20:40;14.50;75.90
80274;DHT22;69576;51.902;-8.462;2023-11-19T06:23:08;14.40;75.70
80274;DHT22;69576;51.902;-8.462;2023-11-19T06:25:34;14.50;76.00
80274;DHT22;69576;51.902;-8.462;2023-11-19T06:28:05;14.50;76.10
80274;DHT22;69576;51.902;-8.462;2023-11-19T06:30:33;14.50;75.90
80274;DHT22;69576;51.902;-8.462;2023-11-19T06:33:03;14.50;75.90
80274;DHT22;69576;51.902;-8.462;2023-11-19T06:35:31;14.50;75.80
80274;DHT22;69576;51.902;-8.462;2023-11-19T06:38:02;14.50;75.80
80274;DHT22;69576;51.902;-8.462;2023-11-19T06:40:30;14.50;75.80
80274;DHT22;69576;51.902;-8.462;2023-11-19T06:42:56;14.50;75.90
80274;DHT22;69576;51.902;-8.462;2023-11-19T06:45:22;14.50;76.10
80274;DHT22;69576;51.902;-8.462;2023-11-19T06:47:50;14.50;76.20
80274;DHT22;69576;51.902;-8.462;2023-11-19T06:50:16;14.50;76.20
80274;DHT22;69576;51.902;-8.462;2023-11-19T06:52:43;14.50;76.00
80274;DHT22;69576;51.902;-8.462;2023-11-19T06:55:09;14.50;76.00
80274;DHT22;69576;51.902;-8.462;2023-11-19T06:57:39;14.50;75.90
80274;DHT22;69576;51.902;-8.462;2023-11-19T07:00:08;14.50;76.10
80274;DHT22;69576;51.902;-8.462;2023-11-19T07:02:36;14.50;76.10
80274;DHT22;69576;51.902;-8.462;2023-11-19T07:05:05;14.50;76.20
80274;DHT22;69576;51.902;-8.462;2023-11-19T07:07:34;14.50;76.10
80274;DHT22;69576;51.902;-8.462;2023-11-19T07:10:01;14.60;76.10
80274;DHT22;69576;51.902;-8.462;2023-11-19T07:12:27;14.60;76.10
80274;DHT22;69576;51.902;-8.462;2023-11-19T07:14:56;14.60;76.10
80274;DHT22;69576;51.902;-8.462;2023-11-19T07:17:21;14.60;76.20
80274;DHT22;69576;51.902;-8.462;2023-11-19T07:19:50;14.60;76.10
80274;DHT22;69576;51.902;-8.462;2023-11-19T07:22:22;14.60;76.10
80274;DHT22;69576;51.902;-8.462;2023-11-19T07:24:48;14.60;76.20
80274;DHT22;69576;51.902;-8.462;2023-11-19T07:27:16;14.60;76.20
80274;DHT22;69576;51.902;-8.462;2023-11-19T07:29:43;14.60;76.10
80274;DHT22;69576;51.902;-8.462;2023-11-19T07:32:12;14.60;76.20
80274;DHT22;69576;51.902;-8.462;2023-11-19T07:34:38;14.60;76.20
80274;DHT22;69576;51.902;-8.462;2023-11-19T07:37:05;14.60;76.10
80274;DHT22;69576;51.902;-8.462;2023-11-19T07:39:31;14.60;76.10
80274;DHT22;69576;51.902;-8.462;2023-11-19T07:41:56;14.60;76.00
80274;DHT22;69576;51.902;-8.462;2023-11-19T07:44:22;14.60;76.00
80274;DHT22;69576;51.902;-8.462;2023-11-19T07:46:48;14.60;76.10
80274;DHT22;69576;51.902;-8.462;2023-11-19T07:49:16;14.60;76.10
80274;DHT22;69576;51.902;-8.462;2023-11-19T07:51:49;14.60;76.10
80274;DHT22;69576;51.902;-8.462;2023-11-19T07:54:14;14.70;76.10
80274;DHT22;69576;51.902;-8.462;2023-11-19T07:56:42;14.70;76.20
80274;DHT22;69576;51.902;-8.462;2023-11-19T07:59:10;14.70;76.20
80274;DHT22;69576;51.902;-8.462;2023-11-19T08:01:38;14.70;76.20
80274;DHT22;69576;51.902;-8.462;2023-11-19T08:04:04;14.70;76.20
80274;DHT22;69576;51.902;-8.462;2023-11-19T08:06:32;14.70;76.30
80274;DHT22;69576;51.902;-8.462;2023-11-19T08:08:58;14.80;76.40
80274;DHT22;69576;51.902;-8.462;2023-11-19T08:11:27;14.80;76.50
80274;DHT22;69576;51.902;-8.462;2023-11-19T08:13:57;14.80;76.40
80274;DHT22;69576;51.902;-8.462;2023-11-19T08:16:26;14.90;76.50
80274;DHT22;69576;51.902;-8.462;2023-11-19T08:18:52;14.90;76.50
80274;DHT22;69576;51.902;-8.462;2023-11-19T08:21:18;14.90;76.40
80274;DHT22;69576;51.902;-8.462;2023-11-19T08:23:43;15.00;76.50
80274;DHT22;69576;51.902;-8.462;2023-11-19T08:26:09;15.00;76.50
80274;DHT22;69576;51.902;-8.462;2023-11-19T08:28:35;15.00;76.50
80274;DHT22;69576;51.902;-8.462;2023-11-19T08:31:01;15.00;76.50
80274;DHT22;69576;51.902;-8.462;2023-11-19T08:33:29;15.00;76.50
80274;DHT22;69576;51.902;-8.462;2023-11-19T08:35:55;15.10;76.50
80274;DHT22;69576;51.902;-8.462;2023-11-19T08:38:24;15.20;76.60
80274;DHT22;69576;51.902;-8.462;2023-11-19T08:40:52;15.20;76.60
80274;DHT22;69576;51.902;-8.462;2023-11-19T08:43:18;15.20;76.60
80274;DHT22;69576;51.902;-8.462;2023-11-19T08:45:44;15.30;76.60
80274;DHT22;69576;51.902;-8.462;2023-11-19T08:48:12;15.30;76.70
80274;DHT22;69576;51.902;-8.462;2023-11-19T08:50:37;15.40;76.70
80274;DHT22;69576;51.902;-8.462;2023-11-19T08:53:03;15.40;76.70
80274;DHT22;69576;51.902;-8.462;2023-11-19T08:55:32;15.40;76.70
80274;DHT22;69576;51.902;-8.462;2023-11-19T08:57:59;15.50;76.70
80274;DHT22;69576;51.902;-8.462;2023-11-19T09:00:25;15.50;76.50
80274;DHT22;69576;51.902;-8.462;2023-11-19T09:02:51;15.50;76.50
80274;DHT22;69576;51.902;-8.462;2023-11-19T09:05:17;15.60;76.50
80274;DHT22;69576;51.902;-8.462;2023-11-19T09:07:43;15.60;76.50
80274;DHT22;69576;51.902;-8.462;2023-11-19T09:10:09;15.70;76.70
80274;DHT22;69576;51.902;-8.462;2023-11-19T09:12:35;15.80;76.50
80274;DHT22;69576;51.902;-8.462;2023-11-19T09:15:00;15.80;76.40
80274;DHT22;69576;51.902;-8.462;2023-11-19T09:17:26;15.80;76.10
80274;DHT22;69576;51.902;-8.462;2023-11-19T09:19:54;15.90;76.00
80274;DHT22;69576;51.902;-8.462;2023-11-19T09:22:20;16.00;75.80
80274;DHT22;69576;51.902;-8.462;2023-11-19T09:24:48;16.00;75.80
80274;DHT22;69576;51.902;-8.462;2023-11-19T09:27:14;16.00;75.70
80274;DHT22;69576;51.902;-8.462;2023-11-19T09:29:39;16.00;75.60
80274;DHT22;69576;51.902;-8.462;2023-11-19T09:32:05;16.10;75.50
80274;DHT22;69576;51.902;-8.462;2023-11-19T09:34:32;16.10;75.40
80274;DHT22;69576;51.902;-8.462;2023-11-19T09:37:00;16.20;75.40
80274;DHT22;69576;51.902;-8.462;2023-11-19T09:39:31;16.20;75.20
80274;DHT22;69576;51.902;-8.462;2023-11-19T09:42:00;16.30;75.00
80274;DHT22;69576;51.902;-8.462;2023-11-19T09:44:26;16.40;75.20
80274;DHT22;69576;51.902;-8.462;2023-11-19T09:46:53;16.40;75.00
80274;DHT22;69576;51.902;-8.462;2023-11-19T09:49:21;16.40;74.70
80274;DHT22;69576;51.902;-8.462;2023-11-19T09:51:51;16.40;74.60
80274;DHT22;69576;51.902;-8.462;2023-11-19T09:54:19;16.40;74.40
80274;DHT22;69576;51.902;-8.462;2023-11-19T09:56:48;16.40;74.40
80274;DHT22;69576;51.902;-8.462;2023-11-19T09:59:16;16.40;74.30
80274;DHT22;69576;51.902;-8.462;2023-11-19T10:01:43;16.40;74.20
80274;DHT22;69576;51.902;-8.462;2023-11-19T10:04:13;16.40;74.30
80274;DHT22;69576;51.902;-8.462;2023-11-19T10:06:41;16.40;74.30
80274;DHT22;69576;51.902;-8.462;2023-11-19T10:09:07;16.40;74.20
80274;DHT22;69576;51.902;-8.462;2023-11-19T10:11:33;16.40;74.10
80274;DHT22;69576;51.902;-8.462;2023-11-19T10:13:59;16.40;74.20
80274;DHT22;69576;51.902;-8.462;2023-11-19T10:16:29;16.40;74.10
80274;DHT22;69576;51.902;-8.462;2023-11-19T10:18:56;16.40;74.10
80274;DHT22;69576;51.902;-8.462;2023-11-19T10:21:22;16.40;74.10
80274;DHT22;69576;51.902;-8.462;2023-11-19T10:23:56;16.40;74.10
80274;DHT22;69576;51.902;-8.462;2023-11-19T10:26:30;16.40;73.80
80274;DHT22;69576;51.902;-8.462;2023-11-19T10:28:56;16.40;73.20
80274;DHT22;69576;51.902;-8.462;2023-11-19T10:31:22;16.40;72.30
80274;DHT22;69576;51.902;-8.462;2023-11-19T10:33:52;16.30;72.30
80274;DHT22;69576;51.902;-8.462;2023-11-19T10:36:20;16.20;72.50
80274;DHT22;69576;51.902;-8.462;2023-11-19T10:38:53;16.20;71.70
80274;DHT22;69576;51.902;-8.462;2023-11-19T10:41:34;16.10;71.40
80274;DHT22;69576;51.902;-8.462;2023-11-19T10:44:02;16.00;71.60
80274;DHT22;69576;51.902;-8.462;2023-11-19T10:46:41;16.00;71.90
80274;DHT22;69576;51.902;-8.462;2023-11-19T10:49:08;16.00;72.10
80274;DHT22;69576;51.902;-8.462;2023-11-19T10:51:34;16.00;72.20
80274;DHT22;69576;51.902;-8.462;2023-11-19T10:54:05;16.00;72.20
80274;DHT22;69576;51.902;-8.462;2023-11-19T10:56:34;16.00;72.20
80274;DHT22;69576;51.902;-8.462;2023-11-19T10:59:01;16.00;72.30
80274;DHT22;69576;51.902;-8.462;2023-11-19T11:01:39;16.00;72.40
80274;DHT22;69576;51.902;-8.462;2023-11-19T11:04:14;16.10;72.50
80274;DHT22;69576;51.902;-8.462;2023-11-19T11:06:43;16.20;72.50
80274;DHT22;69576;51.902;-8.462;2023-11-19T11:09:09;16.30;72.60
80274;DHT22;69576;51.902;-8.462;2023-11-19T11:11:40;16.40;72.80
80274;DHT22;69576;51.902;-8.462;2023-11-19T11:14:12;16.40;72.90
80274;DHT22;69576;51.902;-8.462;2023-11-19T11:16:42;16.40;72.90
80274;DHT22;69576;51.902;-8.462;2023-11-19T11:19:11;16.50;73.00
80274;DHT22;69576;51.902;-8.462;2023-11-19T11:21:46;16.50;73.00
80274;DHT22;69576;51.902;-8.462;2023-11-19T11:24:55;16.60;73.00
80274;DHT22;69576;51.902;-8.462;2023-11-19T11:37:47;16.90;73.00
80274;DHT22;69576;51.902;-8.462;2023-11-19T11:40:15;16.90;72.80
80274;DHT22;69576;51.902;-8.462;2023-11-19T11:42:44;16.90;72.90
80274;DHT22;69576;51.902;-8.462;2023-11-19T11:45:12;16.90;72.70
80274;DHT22;69576;51.902;-8.462;2023-11-19T11:50:16;17.00;72.50
80274;DHT22;69576;51.902;-8.462;2023-11-19T11:55:34;17.20;72.30
80274;DHT22;69576;51.902;-8.462;2023-11-19T11:58:06;17.20;72.10
80274;DHT22;69576;51.902;-8.462;2023-11-19T12:00:41;17.40;72.00
80274;DHT22;69576;51.902;-8.462;2023-11-19T12:03:11;17.50;71.80
80274;DHT22;69576;51.902;-8.462;2023-11-19T12:05:45;17.50;71.70
80274;DHT22;69576;51.902;-8.462;2023-11-19T12:08:12;17.50;71.40
80274;DHT22;69576;51.902;-8.462;2023-11-19T12:10:49;17.60;71.50
80274;DHT22;69576;51.902;-8.462;2023-11-19T12:13:19;17.60;71.20
80274;DHT22;69576;51.902;-8.462;2023-11-19T12:18:29;17.70;71.00
80274;DHT22;69576;51.902;-8.462;2023-11-19T12:20:59;17.70;70.90
80274;DHT22;69576;51.902;-8.462;2023-11-19T12:23:34;17.70;70.90
80274;DHT22;69576;51.902;-8.462;2023-11-19T12:25:59;17.80;70.80
80274;DHT22;69576;51.902;-8.462;2023-11-19T12:28:25;17.80;70.60
80274;DHT22;69576;51.902;-8.462;2023-11-19T12:31:07;17.80;70.80
80274;DHT22;69576;51.902;-8.462;2023-11-19T12:33:36;17.80;70.60
80274;DHT22;69576;51.902;-8.462;2023-11-19T12:36:03;17.80;70.50
80274;DHT22;69576;51.902;-8.462;2023-11-19T12:38:31;17.80;70.40
80274;DHT22;69576;51.902;-8.462;2023-11-19T12:41:06;17.80;70.50
80274;DHT22;69576;51.902;-8.462;2023-11-19T12:43:32;17.80;70.40
80274;DHT22;69576;51.902;-8.462;2023-11-19T12:46:20;17.80;70.40
80274;DHT22;69576;51.902;-8.462;2023-11-19T12:48:50;17.80;70.30
80274;DHT22;69576;51.902;-8.462;2023-11-19T12:51:19;17.80;70.20
80274;DHT22;69576;51.902;-8.462;2023-11-19T12:53:49;17.80;70.30
80274;DHT22;69576;51.902;-8.462;2023-11-19T12:56:16;17.80;70.10
80274;DHT22;69576;51.902;-8.462;2023-11-19T12:58:42;17.80;70.10
80274;DHT22;69576;51.902;-8.462;2023-11-19T13:01:18;17.80;70.00
80274;DHT22;69576;51.902;-8.462;2023-11-19T13:03:45;17.90;69.90
80274;DHT22;69576;51.902;-8.462;2023-11-19T13:06:14;17.90;69.90
80274;DHT22;69576;51.902;-8.462;2023-11-19T13:08:41;18.00;70.00
80274;DHT22;69576;51.902;-8.462;2023-11-19T13:11:09;18.00;69.90
80274;DHT22;69576;51.902;-8.462;2023-11-19T13:13:57;18.00;69.80
80274;DHT22;69576;51.902;-8.462;2023-11-19T13:16:27;18.00;69.50
80274;DHT22;69576;51.902;-8.462;2023-11-19T13:18:53;18.00;69.60
80274;DHT22;69576;51.902;-8.462;2023-11-19T13:21:23;18.00;69.70
80274;DHT22;69576;51.902;-8.462;2023-11-19T13:23:51;17.90;69.50
80274;DHT22;69576;51.902;-8.462;2023-11-19T13:26:17;17.80;69.40
80274;DHT22;69576;51.902;-8.462;2023-11-19T13:28:43;17.80;69.30
80274;DHT22;69576;51.902;-8.462;2023-11-19T13:31:11;17.80;69.40
80274;DHT22;69576;51.902;-8.462;2023-11-19T13:33:42;17.80;69.50
80274;DHT22;69576;51.902;-8.462;2023-11-19T13:36:08;17.80;69.50
80274;DHT22;69576;51.902;-8.462;2023-11-19T13:38:37;17.80;69.50
80274;DHT22;69576;51.902;-8.462;2023-11-19T13:41:05;17.80;69.30
80274;DHT22;69576;51.902;-8.462;2023-11-19T13:43:31;17.80;69.30
80274;DHT22;69576;51.902;-8.462;2023-11-19T13:45:57;17.80;69.40
80274;DHT22;69576;51.902;-8.462;2023-11-19T13:48:24;17.70;69.40
80274;DHT22;69576;51.902;-8.462;2023-11-19T13:50:50;17.80;69.40
80274;DHT22;69576;51.902;-8.462;2023-11-19T13:53:16;17.70;69.30
80274;DHT22;69576;51.902;-8.462;2023-11-19T13:55:42;17.70;69.30
80274;DHT22;69576;51.902;-8.462;2023-11-19T13:58:09;17.70;69.30
80274;DHT22;69576;51.902;-8.462;2023-11-19T14:00:35;17.70;69.40
80274;DHT22;69576;51.902;-8.462;2023-11-19T14:03:00;17.70;69.40
80274;DHT22;69576;51.902;-8.462;2023-11-19T14:05:26;17.80;69.40
80274;DHT22;69576;51.902;-8.462;2023-11-19T14:07:52;17.80;69.40
80274;DHT22;69576;51.902;-8.462;2023-11-19T14:10:19;17.80;69.40
80274;DHT22;69576;51.902;-8.462;2023-11-19T14:12:47;17.90;69.30
80274;DHT22;69576;51.902;-8.462;2023-11-19T14:15:13;17.90;69.30
80274;DHT22;69576;51.902;-8.462;2023-11-19T14:17:39;18.00;69.20
80274;DHT22;69576;51.902;-8.462;2023-11-19T14:20:06;18.00;69.10
80274;DHT22;69576;51.902;-8.462;2023-11-19T14:22:42;18.00;69.00
80274;DHT22;69576;51.902;-8.462;2023-11-19T14:25:11;18.00;69.00
80274;DHT22;69576;51.902;-8.462;2023-11-19T14:27:41;18.00;68.90
80274;DHT22;69576;51.902;-8.462;2023-11-19T14:30:11;18.00;69.00
80274;DHT22;69576;51.902;-8.462;2023-11-19T14:32:39;17.90;68.80
80274;DHT22;69576;51.902;-8.462;2023-11-19T14:35:08;17.90;68.70
80274;DHT22;69576;51.902;-8.462;2023-11-19T14:37:33;17.90;68.70
80274;DHT22;69576;51.902;-8.462;2023-11-19T14:40:00;17.80;68.50
80274;DHT22;69576;51.902;-8.462;2023-11-19T14:42:27;17.80;68.70
80274;DHT22;69576;51.902;-8.462;2023-11-19T14:44:55;17.80;68.70
80274;DHT22;69576;51.902;-8.462;2023-11-19T14:47:21;17.80;68.70
80274;DHT22;69576;51.902;-8.462;2023-11-19T14:49:50;17.80;68.70
80274;DHT22;69576;51.902;-8.462;2023-11-19T14:52:20;17.80;68.60
80274;DHT22;69576;51.902;-8.462;2023-11-19T14:54:46;17.80;68.60
80274;DHT22;69576;51.902;-8.462;2023-11-19T14:57:15;17.80;68.60
80274;DHT22;69576;51.902;-8.462;2023-11-19T14:59:40;17.80;68.60
80274;DHT22;69576;51.902;-8.462;2023-11-19T15:02:06;17.70;68.70
80274;DHT22;69576;51.902;-8.462;2023-11-19T15:04:34;17.60;68.50
80274;DHT22;69576;51.902;-8.462;2023-11-19T15:07:00;17.60;68.60
80274;DHT22;69576;51.902;-8.462;2023-11-19T15:09:26;17.60;68.70
80274;DHT22;69576;51.902;-8.462;2023-11-19T15:11:54;17.50;68.60
80274;DHT22;69576;51.902;-8.462;2023-11-19T15:14:20;17.50;68.70
80274;DHT22;69576;51.902;-8.462;2023-11-19T15:16:49;17.50;68.70
80274;DHT22;69576;51.902;-8.462;2023-11-19T15:19:19;17.50;68.70
80274;DHT22;69576;51.902;-8.462;2023-11-19T15:21:49;17.50;68.70
80274;DHT22;69576;51.902;-8.462;2023-11-19T15:24:15;17.50;68.70
80274;DHT22;69576;51.902;-8.462;2023-11-19T15:26:41;17.50;68.70
80274;DHT22;69576;51.902;-8.462;2023-11-19T15:29:09;17.50;68.70
80274;DHT22;69576;51.902;-8.462;2023-11-19T15:31:34;17.50;68.70
80274;DHT22;69576;51.902;-8.462;2023-11-19T15:34:00;17.50;68.70
80274;DHT22;69576;51.902;-8.462;2023-11-19T15:36:31;17.50;68.70
80274;DHT22;69576;51.902;-8.462;2023-11-19T15:38:58;17.40;68.70